sensor_id;sensor_type;location;lat;lon;timestamp;P1;durP1;ratioP1;P2;durP2;ratioP2
40433;SDS011;26146;51.114;5.654;2023-04-03T00:03:32;9.60;;;4.37;;
40433;SDS011;26146;51.114;5.654;2023-04-03T00:07:33;10.10;;;4.67;;
40433;SDS011;26146;51.114;5.654;2023-04-03T00:11:34;10.53;;;4.47;;
40433;SDS011;26146;51.114;5.654;2023-04-03T00:15:38;10.53;;;5.00;;
40433;SDS011;26146;51.114;5.654;2023-04-03T00:19:39;11.10;;;4.20;;
40433;SDS011;26146;51.114;5.654;2023-04-03T00:23:43;10.33;;;4.77;;
40433;SDS011;26146;51.114;5.654;2023-04-03T00:27:47;11.30;;;4.80;;
40433;SDS011;26146;51.114;5.654;2023-04-03T00:31:47;11.10;;;4.40;;
40433;SDS011;26146;51.114;5.654;2023-04-03T00:35:56;10.27;;;4.63;;
40433;SDS011;26146;51.114;5.654;2023-04-03T00:39:57;10.43;;;4.70;;
40433;SDS011;26146;51.114;5.654;2023-04-03T00:43:58;9.97;;;4.80;;
40433;SDS011;26146;51.114;5.654;2023-04-03T00:47:59;11.97;;;4.80;;
40433;SDS011;26146;51.114;5.654;2023-04-03T00:52:02;10.50;;;4.47;;
40433;SDS011;26146;51.114;5.654;2023-04-03T00:56:11;10.17;;;4.80;;
40433;SDS011;26146;51.114;5.654;2023-04-03T01:00:16;11.40;;;4.78;;
40433;SDS011;26146;51.114;5.654;2023-04-03T01:04:27;11.77;;;5.47;;
40433;SDS011;26146;51.114;5.654;2023-04-03T01:08:34;12.17;;;5.57;;
40433;SDS011;26146;51.114;5.654;2023-04-03T01:12:39;10.40;;;5.33;;
40433;SDS011;26146;51.114;5.654;2023-04-03T01:25:07;18.00;;;5.47;;
40433;SDS011;26146;51.114;5.654;2023-04-03T01:29:08;11.37;;;5.40;;
40433;SDS011;26146;51.114;5.654;2023-04-03T01:33:10;11.80;;;5.23;;
40433;SDS011;26146;51.114;5.654;2023-04-03T01:37:13;11.73;;;5.60;;
40433;SDS011;26146;51.114;5.654;2023-04-03T01:41:14;12.10;;;5.47;;
40433;SDS011;26146;51.114;5.654;2023-04-03T01:45:16;11.60;;;5.63;;
40433;SDS011;26146;51.114;5.654;2023-04-03T01:49:20;12.33;;;5.70;;
40433;SDS011;26146;51.114;5.654;2023-04-03T01:53:21;13.00;;;5.60;;
40433;SDS011;26146;51.114;5.654;2023-04-03T01:57:22;12.90;;;5.80;;
40433;SDS011;26146;51.114;5.654;2023-04-03T02:01:23;14.00;;;6.03;;
40433;SDS011;26146;51.114;5.654;2023-04-03T02:05:24;12.30;;;5.83;;
40433;SDS011;26146;51.114;5.654;2023-04-03T02:09:27;12.47;;;5.97;;
40433;SDS011;26146;51.114;5.654;2023-04-03T02:13:28;11.07;;;5.80;;
40433;SDS011;26146;51.114;5.654;2023-04-03T02:17:29;13.33;;;6.27;;
40433;SDS011;26146;51.114;5.654;2023-04-03T02:21:30;13.07;;;6.17;;
40433;SDS011;26146;51.114;5.654;2023-04-03T02:25:31;14.30;;;6.57;;
40433;SDS011;26146;51.114;5.654;2023-04-03T02:29:32;12.20;;;6.60;;
40433;SDS011;26146;51.114;5.654;2023-04-03T02:33:34;15.03;;;6.73;;
40433;SDS011;26146;51.114;5.654;2023-04-03T02:37:36;16.73;;;6.70;;
40433;SDS011;26146;51.114;5.654;2023-04-03T02:41:37;15.13;;;6.90;;
40433;SDS011;26146;51.114;5.654;2023-04-03T02:45:38;14.70;;;6.57;;
40433;SDS011;26146;51.114;5.654;2023-04-03T02:49:40;14.17;;;6.63;;
40433;SDS011;26146;51.114;5.654;2023-04-03T02:53:41;14.80;;;6.47;;
40433;SDS011;26146;51.114;5.654;2023-04-03T02:57:41;14.33;;;7.23;;
40433;SDS011;26146;51.114;5.654;2023-04-03T03:01:43;13.77;;;6.97;;
40433;SDS011;26146;51.114;5.654;2023-04-03T03:05:44;15.20;;;6.63;;
40433;SDS011;26146;51.114;5.654;2023-04-03T03:09:45;13.93;;;7.30;;
40433;SDS011;26146;51.114;5.654;2023-04-03T03:13:46;13.87;;;6.90;;
40433;SDS011;26146;51.114;5.654;2023-04-03T03:17:47;12.33;;;6.37;;
40433;SDS011;26146;51.114;5.654;2023-04-03T03:21:48;13.47;;;6.67;;
40433;SDS011;26146;51.114;5.654;2023-04-03T03:25:49;13.90;;;6.37;;
40433;SDS011;26146;51.114;5.654;2023-04-03T03:29:54;13.02;;;6.50;;
40433;SDS011;26146;51.114;5.654;2023-04-03T03:33:58;13.50;;;6.13;;
40433;SDS011;26146;51.114;5.654;2023-04-03T03:37:59;13.60;;;6.57;;
40433;SDS011;26146;51.114;5.654;2023-04-03T03:42:00;14.20;;;7.03;;
40433;SDS011;26146;51.114;5.654;2023-04-03T03:46:01;13.50;;;6.93;;
40433;SDS011;26146;51.114;5.654;2023-04-03T03:50:04;13.53;;;7.30;;
40433;SDS011;26146;51.114;5.654;2023-04-03T03:54:06;14.83;;;7.83;;
40433;SDS011;26146;51.114;5.654;2023-04-03T03:58:07;15.30;;;8.53;;
40433;SDS011;26146;51.114;5.654;2023-04-03T04:02:08;17.73;;;8.63;;
40433;SDS011;26146;51.114;5.654;2023-04-03T04:06:09;19.43;;;9.57;;
40433;SDS011;26146;51.114;5.654;2023-04-03T04:10:10;18.93;;;9.67;;
40433;SDS011;26146;51.114;5.654;2023-04-03T04:14:11;16.60;;;8.93;;
40433;SDS011;26146;51.114;5.654;2023-04-03T04:18:13;16.87;;;8.60;;
40433;SDS011;26146;51.114;5.654;2023-04-03T04:22:14;17.70;;;9.87;;
40433;SDS011;26146;51.114;5.654;2023-04-03T04:26:15;16.00;;;8.40;;
40433;SDS011;26146;51.114;5.654;2023-04-03T04:30:16;16.30;;;8.60;;
40433;SDS011;26146;51.114;5.654;2023-04-03T04:34:17;18.43;;;8.33;;
40433;SDS011;26146;51.114;5.654;2023-04-03T04:38:18;16.00;;;8.30;;
40433;SDS011;26146;51.114;5.654;2023-04-03T04:42:19;17.17;;;8.43;;
40433;SDS011;26146;51.114;5.654;2023-04-03T04:46:20;14.87;;;8.03;;
40433;SDS011;26146;51.114;5.654;2023-04-03T04:50:21;16.97;;;7.93;;
40433;SDS011;26146;51.114;5.654;2023-04-03T04:54:22;16.70;;;8.10;;
40433;SDS011;26146;51.114;5.654;2023-04-03T04:58:23;14.70;;;7.53;;
40433;SDS011;26146;51.114;5.654;2023-04-03T05:02:24;16.00;;;7.53;;
40433;SDS011;26146;51.114;5.654;2023-04-03T05:06:25;16.00;;;7.63;;
40433;SDS011;26146;51.114;5.654;2023-04-03T05:10:26;14.73;;;7.43;;
40433;SDS011;26146;51.114;5.654;2023-04-03T05:14:30;16.77;;;7.27;;
40433;SDS011;26146;51.114;5.654;2023-04-03T05:18:37;15.63;;;7.27;;
40433;SDS011;26146;51.114;5.654;2023-04-03T05:22:38;16.73;;;7.20;;
40433;SDS011;26146;51.114;5.654;2023-04-03T05:26:39;14.50;;;6.43;;
40433;SDS011;26146;51.114;5.654;2023-04-03T05:30:43;15.43;;;6.53;;
40433;SDS011;26146;51.114;5.654;2023-04-03T05:34:44;13.53;;;5.80;;
40433;SDS011;26146;51.114;5.654;2023-04-03T05:38:45;13.00;;;5.60;;
40433;SDS011;26146;51.114;5.654;2023-04-03T05:42:46;16.00;;;5.77;;
40433;SDS011;26146;51.114;5.654;2023-04-03T05:46:47;14.63;;;5.33;;
40433;SDS011;26146;51.114;5.654;2023-04-03T05:50:48;14.17;;;5.80;;
40433;SDS011;26146;51.114;5.654;2023-04-03T05:54:49;13.70;;;5.13;;
40433;SDS011;26146;51.114;5.654;2023-04-03T05:58:50;13.53;;;4.97;;
40433;SDS011;26146;51.114;5.654;2023-04-03T06:02:51;14.50;;;5.03;;
40433;SDS011;26146;51.114;5.654;2023-04-03T06:06:56;10.83;;;4.33;;
40433;SDS011;26146;51.114;5.654;2023-04-03T06:10:57;13.50;;;4.23;;
40433;SDS011;26146;51.114;5.654;2023-04-03T06:14:58;14.33;;;4.50;;
40433;SDS011;26146;51.114;5.654;2023-04-03T06:18:59;15.63;;;5.80;;
40433;SDS011;26146;51.114;5.654;2023-04-03T06:23:01;12.03;;;3.80;;
40433;SDS011;26146;51.114;5.654;2023-04-03T06:27:02;15.63;;;4.40;;
40433;SDS011;26146;51.114;5.654;2023-04-03T06:31:03;10.57;;;3.70;;
40433;SDS011;26146;51.114;5.654;2023-04-03T06:35:04;13.87;;;3.40;;
40433;SDS011;26146;51.114;5.654;2023-04-03T06:39:06;10.70;;;3.30;;
40433;SDS011;26146;51.114;5.654;2023-04-03T06:43:08;10.17;;;3.13;;
40433;SDS011;26146;51.114;5.654;2023-04-03T06:47:11;9.73;;;3.00;;
40433;SDS011;26146;51.114;5.654;2023-04-03T06:51:24;9.07;;;3.00;;
40433;SDS011;26146;51.114;5.654;2023-04-03T06:55:29;9.20;;;2.90;;
40433;SDS011;26146;51.114;5.654;2023-04-03T06:59:30;13.40;;;2.90;;
40433;SDS011;26146;51.114;5.654;2023-04-03T07:03:31;10.90;;;2.80;;
40433;SDS011;26146;51.114;5.654;2023-04-03T07:07:32;7.97;;;2.43;;
40433;SDS011;26146;51.114;5.654;2023-04-03T07:11:34;10.03;;;2.60;;
40433;SDS011;26146;51.114;5.654;2023-04-03T07:15:36;8.87;;;2.57;;
40433;SDS011;26146;51.114;5.654;2023-04-03T07:19:37;11.00;;;2.67;;
40433;SDS011;26146;51.114;5.654;2023-04-03T07:23:38;10.93;;;2.53;;
40433;SDS011;26146;51.114;5.654;2023-04-03T07:27:40;11.03;;;2.47;;
40433;SDS011;26146;51.114;5.654;2023-04-03T07:31:42;12.00;;;2.53;;
40433;SDS011;26146;51.114;5.654;2023-04-03T07:35:45;9.30;;;2.43;;
40433;SDS011;26146;51.114;5.654;2023-04-03T07:39:46;10.00;;;2.73;;
40433;SDS011;26146;51.114;5.654;2023-04-03T07:43:51;11.70;;;2.57;;
40433;SDS011;26146;51.114;5.654;2023-04-03T07:47:53;8.93;;;2.53;;
40433;SDS011;26146;51.114;5.654;2023-04-03T07:51:54;8.30;;;2.20;;
40433;SDS011;26146;51.114;5.654;2023-04-03T07:55:56;9.67;;;2.53;;
40433;SDS011;26146;51.114;5.654;2023-04-03T07:59:57;9.23;;;2.47;;
40433;SDS011;26146;51.114;5.654;2023-04-03T08:03:58;8.33;;;2.10;;
40433;SDS011;26146;51.114;5.654;2023-04-03T08:08:01;9.73;;;2.67;;
40433;SDS011;26146;51.114;5.654;2023-04-03T08:12:02;8.30;;;2.07;;
40433;SDS011;26146;51.114;5.654;2023-04-03T08:16:10;9.23;;;2.20;;
40433;SDS011;26146;51.114;5.654;2023-04-03T08:20:13;8.30;;;2.20;;
40433;SDS011;26146;51.114;5.654;2023-04-03T08:24:14;10.23;;;2.30;;
40433;SDS011;26146;51.114;5.654;2023-04-03T08:28:18;8.77;;;2.23;;
40433;SDS011;26146;51.114;5.654;2023-04-03T08:32:19;11.17;;;2.40;;
40433;SDS011;26146;51.114;5.654;2023-04-03T08:36:26;11.67;;;2.37;;
40433;SDS011;26146;51.114;5.654;2023-04-03T08:40:29;8.00;;;1.97;;
40433;SDS011;26146;51.114;5.654;2023-04-03T08:49:03;7.50;;;1.90;;
40433;SDS011;26146;51.114;5.654;2023-04-03T08:53:17;7.40;;;1.63;;
40433;SDS011;26146;51.114;5.654;2023-04-03T08:57:33;9.07;;;1.93;;
40433;SDS011;26146;51.114;5.654;2023-04-03T09:01:41;13.07;;;1.90;;
40433;SDS011;26146;51.114;5.654;2023-04-03T09:09:59;8.38;;;1.85;;
40433;SDS011;26146;51.114;5.654;2023-04-03T09:18:36;8.17;;;1.93;;
40433;SDS011;26146;51.114;5.654;2023-04-03T09:22:42;8.23;;;1.83;;
40433;SDS011;26146;51.114;5.654;2023-04-03T09:30:48;6.80;;;1.30;;
40433;SDS011;26146;51.114;5.654;2023-04-03T09:34:49;8.47;;;1.47;;
40433;SDS011;26146;51.114;5.654;2023-04-03T09:39:07;8.07;;;1.30;;
40433;SDS011;26146;51.114;5.654;2023-04-03T09:43:19;5.83;;;1.10;;
40433;SDS011;26146;51.114;5.654;2023-04-03T09:47:32;6.40;;;1.13;;
40433;SDS011;26146;51.114;5.654;2023-04-03T09:51:34;4.77;;;0.87;;
40433;SDS011;26146;51.114;5.654;2023-04-03T09:55:41;5.87;;;0.93;;
40433;SDS011;26146;51.114;5.654;2023-04-03T09:59:59;7.57;;;1.60;;
40433;SDS011;26146;51.114;5.654;2023-04-03T10:04:05;5.77;;;1.23;;
40433;SDS011;26146;51.114;5.654;2023-04-03T10:12:13;6.70;;;1.20;;
40433;SDS011;26146;51.114;5.654;2023-04-03T10:16:44;4.50;;;0.90;;
40433;SDS011;26146;51.114;5.654;2023-04-03T10:20:52;5.80;;;1.00;;
40433;SDS011;26146;51.114;5.654;2023-04-03T10:29:23;4.77;;;0.90;;
40433;SDS011;26146;51.114;5.654;2023-04-03T10:42:17;6.60;;;1.20;;
40433;SDS011;26146;51.114;5.654;2023-04-03T10:46:30;5.90;;;1.13;;
40433;SDS011;26146;51.114;5.654;2023-04-03T10:59:32;7.07;;;1.50;;
40433;SDS011;26146;51.114;5.654;2023-04-03T11:03:54;4.87;;;0.80;;
40433;SDS011;26146;51.114;5.654;2023-04-03T11:07:59;4.77;;;0.97;;
40433;SDS011;26146;51.114;5.654;2023-04-03T11:12:18;5.30;;;0.80;;
40433;SDS011;26146;51.114;5.654;2023-04-03T11:20:37;4.60;;;0.80;;
40433;SDS011;26146;51.114;5.654;2023-04-03T11:24:42;8.87;;;0.87;;
40433;SDS011;26146;51.114;5.654;2023-04-03T11:28:46;4.03;;;0.73;;
40433;SDS011;26146;51.114;5.654;2023-04-03T11:32:58;5.67;;;0.83;;
40433;SDS011;26146;51.114;5.654;2023-04-03T11:37:03;5.27;;;0.93;;
40433;SDS011;26146;51.114;5.654;2023-04-03T11:41:28;4.63;;;0.83;;
40433;SDS011;26146;51.114;5.654;2023-04-03T11:45:38;3.90;;;0.70;;
40433;SDS011;26146;51.114;5.654;2023-04-03T11:58:50;4.87;;;0.90;;
40433;SDS011;26146;51.114;5.654;2023-04-03T12:03:22;5.13;;;0.90;;
40433;SDS011;26146;51.114;5.654;2023-04-03T12:07:26;6.63;;;1.00;;
40433;SDS011;26146;51.114;5.654;2023-04-03T12:11:30;6.07;;;1.07;;
40433;SDS011;26146;51.114;5.654;2023-04-03T12:19:39;5.97;;;1.00;;
40433;SDS011;26146;51.114;5.654;2023-04-03T12:28:04;6.30;;;1.10;;
40433;SDS011;26146;51.114;5.654;2023-04-03T12:36:41;6.57;;;1.30;;
40433;SDS011;26146;51.114;5.654;2023-04-03T12:45:22;7.13;;;1.03;;
40433;SDS011;26146;51.114;5.654;2023-04-03T12:53:31;6.67;;;1.37;;
40433;SDS011;26146;51.114;5.654;2023-04-03T12:57:34;6.43;;;1.00;;
40433;SDS011;26146;51.114;5.654;2023-04-03T13:01:38;5.83;;;1.13;;
40433;SDS011;26146;51.114;5.654;2023-04-03T13:05:39;5.30;;;1.00;;
40433;SDS011;26146;51.114;5.654;2023-04-03T13:09:44;6.07;;;1.10;;
40433;SDS011;26146;51.114;5.654;2023-04-03T13:14:00;4.73;;;1.10;;
40433;SDS011;26146;51.114;5.654;2023-04-03T13:18:05;5.30;;;1.00;;
40433;SDS011;26146;51.114;5.654;2023-04-03T13:26:30;5.03;;;1.10;;
40433;SDS011;26146;51.114;5.654;2023-04-03T13:30:34;4.80;;;1.20;;
40433;SDS011;26146;51.114;5.654;2023-04-03T13:34:38;7.53;;;1.15;;
40433;SDS011;26146;51.114;5.654;2023-04-03T13:38:42;5.60;;;1.10;;
40433;SDS011;26146;51.114;5.654;2023-04-03T13:42:43;5.80;;;1.20;;
40433;SDS011;26146;51.114;5.654;2023-04-03T13:46:44;6.90;;;1.30;;
40433;SDS011;26146;51.114;5.654;2023-04-03T13:55:17;5.37;;;1.10;;
40433;SDS011;26146;51.114;5.654;2023-04-03T13:59:27;5.23;;;1.10;;
40433;SDS011;26146;51.114;5.654;2023-04-03T14:03:53;5.30;;;1.13;;
40433;SDS011;26146;51.114;5.654;2023-04-03T14:08:01;5.47;;;1.00;;
40433;SDS011;26146;51.114;5.654;2023-04-03T14:12:04;6.33;;;1.50;;
40433;SDS011;26146;51.114;5.654;2023-04-03T14:16:11;6.57;;;1.30;;
40433;SDS011;26146;51.114;5.654;2023-04-03T14:20:19;5.30;;;1.10;;
40433;SDS011;26146;51.114;5.654;2023-04-03T14:24:22;4.43;;;0.90;;
40433;SDS011;26146;51.114;5.654;2023-04-03T14:28:23;5.30;;;0.93;;
40433;SDS011;26146;51.114;5.654;2023-04-03T14:32:25;4.47;;;0.90;;
40433;SDS011;26146;51.114;5.654;2023-04-03T14:36:27;5.93;;;1.10;;
40433;SDS011;26146;51.114;5.654;2023-04-03T14:40:30;7.63;;;1.13;;
40433;SDS011;26146;51.114;5.654;2023-04-03T14:44:31;6.80;;;1.07;;
40433;SDS011;26146;51.114;5.654;2023-04-03T14:48:32;5.97;;;1.00;;
40433;SDS011;26146;51.114;5.654;2023-04-03T14:52:38;4.83;;;1.00;;
40433;SDS011;26146;51.114;5.654;2023-04-03T14:56:39;6.63;;;1.33;;
40433;SDS011;26146;51.114;5.654;2023-04-03T15:00:40;5.37;;;1.30;;
40433;SDS011;26146;51.114;5.654;2023-04-03T15:04:44;4.50;;;1.00;;
40433;SDS011;26146;51.114;5.654;2023-04-03T15:08:46;5.57;;;1.10;;
40433;SDS011;26146;51.114;5.654;2023-04-03T15:12:48;5.57;;;1.10;;
40433;SDS011;26146;51.114;5.654;2023-04-03T15:16:54;6.10;;;1.00;;
40433;SDS011;26146;51.114;5.654;2023-04-03T15:20:57;4.67;;;1.00;;
40433;SDS011;26146;51.114;5.654;2023-04-03T15:24:59;6.27;;;1.10;;
40433;SDS011;26146;51.114;5.654;2023-04-03T15:29:00;7.83;;;1.10;;
40433;SDS011;26146;51.114;5.654;2023-04-03T15:33:01;5.23;;;1.20;;
40433;SDS011;26146;51.114;5.654;2023-04-03T15:37:01;4.73;;;1.10;;
40433;SDS011;26146;51.114;5.654;2023-04-03T15:41:02;5.60;;;1.27;;
40433;SDS011;26146;51.114;5.654;2023-04-03T15:45:05;6.93;;;1.10;;
40433;SDS011;26146;51.114;5.654;2023-04-03T15:49:07;6.33;;;1.33;;
40433;SDS011;26146;51.114;5.654;2023-04-03T15:53:08;6.80;;;1.27;;
40433;SDS011;26146;51.114;5.654;2023-04-03T15:57:09;5.77;;;1.30;;
40433;SDS011;26146;51.114;5.654;2023-04-03T16:01:10;6.63;;;1.27;;
40433;SDS011;26146;51.114;5.654;2023-04-03T16:05:12;8.17;;;1.40;;
40433;SDS011;26146;51.114;5.654;2023-04-03T16:09:15;5.27;;;1.10;;
40433;SDS011;26146;51.114;5.654;2023-04-03T16:13:17;7.57;;;1.17;;
40433;SDS011;26146;51.114;5.654;2023-04-03T16:17:20;5.17;;;1.37;;
40433;SDS011;26146;51.114;5.654;2023-04-03T16:21:21;4.73;;;1.13;;
40433;SDS011;26146;51.114;5.654;2023-04-03T16:25:23;5.73;;;1.10;;
40433;SDS011;26146;51.114;5.654;2023-04-03T16:29:24;6.77;;;1.20;;
40433;SDS011;26146;51.114;5.654;2023-04-03T16:33:25;7.00;;;1.40;;
40433;SDS011;26146;51.114;5.654;2023-04-03T16:37:26;6.83;;;1.37;;
40433;SDS011;26146;51.114;5.654;2023-04-03T16:41:27;6.03;;;1.10;;
40433;SDS011;26146;51.114;5.654;2023-04-03T16:45:28;6.23;;;1.40;;
40433;SDS011;26146;51.114;5.654;2023-04-03T16:49:29;7.20;;;1.30;;
40433;SDS011;26146;51.114;5.654;2023-04-03T16:53:32;6.97;;;1.10;;
40433;SDS011;26146;51.114;5.654;2023-04-03T16:57:33;7.80;;;1.07;;
40433;SDS011;26146;51.114;5.654;2023-04-03T17:01:34;6.67;;;1.20;;
40433;SDS011;26146;51.114;5.654;2023-04-03T17:05:35;5.50;;;1.20;;
40433;SDS011;26146;51.114;5.654;2023-04-03T17:09:36;5.10;;;1.30;;
40433;SDS011;26146;51.114;5.654;2023-04-03T17:13:40;5.13;;;1.10;;
40433;SDS011;26146;51.114;5.654;2023-04-03T17:17:41;5.17;;;0.80;;
40433;SDS011;26146;51.114;5.654;2023-04-03T17:21:42;4.90;;;0.90;;
40433;SDS011;26146;51.114;5.654;2023-04-03T17:25:44;6.33;;;1.20;;
40433;SDS011;26146;51.114;5.654;2023-04-03T17:29:45;5.13;;;0.90;;
40433;SDS011;26146;51.114;5.654;2023-04-03T17:33:48;5.80;;;1.10;;
40433;SDS011;26146;51.114;5.654;2023-04-03T17:37:49;6.40;;;1.20;;
40433;SDS011;26146;51.114;5.654;2023-04-03T17:41:52;9.27;;;1.70;;
40433;SDS011;26146;51.114;5.654;2023-04-03T17:45:59;10.27;;;2.20;;
40433;SDS011;26146;51.114;5.654;2023-04-03T17:50:04;6.70;;;1.00;;
40433;SDS011;26146;51.114;5.654;2023-04-03T17:54:06;5.47;;;0.93;;
40433;SDS011;26146;51.114;5.654;2023-04-03T17:58:07;6.60;;;1.20;;
40433;SDS011;26146;51.114;5.654;2023-04-03T18:02:08;7.30;;;1.30;;
40433;SDS011;26146;51.114;5.654;2023-04-03T18:06:13;6.13;;;1.20;;
40433;SDS011;26146;51.114;5.654;2023-04-03T18:10:18;6.73;;;1.27;;
40433;SDS011;26146;51.114;5.654;2023-04-03T18:14:23;6.40;;;1.03;;
40433;SDS011;26146;51.114;5.654;2023-04-03T18:18:26;6.37;;;1.27;;
40433;SDS011;26146;51.114;5.654;2023-04-03T18:22:29;5.90;;;1.10;;
40433;SDS011;26146;51.114;5.654;2023-04-03T18:26:31;5.13;;;1.17;;
40433;SDS011;26146;51.114;5.654;2023-04-03T18:30:33;5.37;;;1.20;;
40433;SDS011;26146;51.114;5.654;2023-04-03T18:34:35;8.07;;;2.03;;
40433;SDS011;26146;51.114;5.654;2023-04-03T18:38:36;6.73;;;1.40;;
40433;SDS011;26146;51.114;5.654;2023-04-03T18:42:37;6.17;;;1.37;;
40433;SDS011;26146;51.114;5.654;2023-04-03T18:46:40;5.30;;;1.27;;
40433;SDS011;26146;51.114;5.654;2023-04-03T18:50:41;5.70;;;1.30;;
40433;SDS011;26146;51.114;5.654;2023-04-03T18:54:42;7.30;;;1.30;;
40433;SDS011;26146;51.114;5.654;2023-04-03T18:58:43;8.33;;;1.40;;
40433;SDS011;26146;51.114;5.654;2023-04-03T19:02:44;6.70;;;1.40;;
40433;SDS011;26146;51.114;5.654;2023-04-03T19:06:50;7.33;;;1.60;;
40433;SDS011;26146;51.114;5.654;2023-04-03T19:10:52;5.20;;;1.50;;
40433;SDS011;26146;51.114;5.654;2023-04-03T19:14:53;6.97;;;1.50;;
40433;SDS011;26146;51.114;5.654;2023-04-03T19:18:54;5.60;;;1.30;;
40433;SDS011;26146;51.114;5.654;2023-04-03T19:22:55;7.10;;;1.50;;
40433;SDS011;26146;51.114;5.654;2023-04-03T19:26:58;7.97;;;1.60;;
40433;SDS011;26146;51.114;5.654;2023-04-03T19:31:00;11.37;;;1.93;;
40433;SDS011;26146;51.114;5.654;2023-04-03T19:35:01;8.47;;;1.90;;
40433;SDS011;26146;51.114;5.654;2023-04-03T19:39:08;5.87;;;1.43;;
40433;SDS011;26146;51.114;5.654;2023-04-03T19:43:13;6.50;;;1.33;;
40433;SDS011;26146;51.114;5.654;2023-04-03T19:51:17;8.70;;;1.57;;
40433;SDS011;26146;51.114;5.654;2023-04-03T19:55:18;6.23;;;1.40;;
40433;SDS011;26146;51.114;5.654;2023-04-03T19:59:19;7.07;;;1.60;;
40433;SDS011;26146;51.114;5.654;2023-04-03T20:03:20;8.37;;;1.40;;
40433;SDS011;26146;51.114;5.654;2023-04-03T20:07:21;7.33;;;1.50;;
40433;SDS011;26146;51.114;5.654;2023-04-03T20:11:26;8.20;;;1.80;;
40433;SDS011;26146;51.114;5.654;2023-04-03T20:15:27;5.97;;;1.50;;
40433;SDS011;26146;51.114;5.654;2023-04-03T20:19:29;8.07;;;2.03;;
40433;SDS011;26146;51.114;5.654;2023-04-03T20:23:31;8.90;;;1.70;;
40433;SDS011;26146;51.114;5.654;2023-04-03T20:27:33;9.70;;;1.80;;
40433;SDS011;26146;51.114;5.654;2023-04-03T20:31:36;6.47;;;1.90;;
40433;SDS011;26146;51.114;5.654;2023-04-03T20:35:39;8.07;;;2.17;;
40433;SDS011;26146;51.114;5.654;2023-04-03T20:39:42;7.43;;;3.00;;
40433;SDS011;26146;51.114;5.654;2023-04-03T20:43:43;9.77;;;3.90;;
40433;SDS011;26146;51.114;5.654;2023-04-03T20:47:47;49.70;;;20.30;;
40433;SDS011;26146;51.114;5.654;2023-04-03T20:51:50;12.63;;;5.57;;
40433;SDS011;26146;51.114;5.654;2023-04-03T20:55:55;7.63;;;3.00;;
40433;SDS011;26146;51.114;5.654;2023-04-03T20:59:59;6.40;;;1.50;;
40433;SDS011;26146;51.114;5.654;2023-04-03T21:04:06;9.20;;;2.03;;
40433;SDS011;26146;51.114;5.654;2023-04-03T21:21:32;8.23;;;1.50;;
40433;SDS011;26146;51.114;5.654;2023-04-03T21:25:36;10.20;;;3.03;;
40433;SDS011;26146;51.114;5.654;2023-04-03T21:29:37;8.40;;;1.70;;
40433;SDS011;26146;51.114;5.654;2023-04-03T21:33:38;8.50;;;1.90;;
40433;SDS011;26146;51.114;5.654;2023-04-03T21:37:39;6.17;;;1.70;;
40433;SDS011;26146;51.114;5.654;2023-04-03T21:41:40;7.13;;;1.50;;
40433;SDS011;26146;51.114;5.654;2023-04-03T21:45:41;5.60;;;1.30;;
40433;SDS011;26146;51.114;5.654;2023-04-03T21:49:42;6.90;;;1.40;;
40433;SDS011;26146;51.114;5.654;2023-04-03T21:53:50;6.70;;;1.30;;
40433;SDS011;26146;51.114;5.654;2023-04-03T21:57:54;8.17;;;1.33;;
40433;SDS011;26146;51.114;5.654;2023-04-03T22:01:55;5.93;;;1.37;;
40433;SDS011;26146;51.114;5.654;2023-04-03T22:05:58;5.97;;;1.50;;
40433;SDS011;26146;51.114;5.654;2023-04-03T22:09:59;6.07;;;1.57;;
40433;SDS011;26146;51.114;5.654;2023-04-03T22:14:00;7.10;;;1.50;;
40433;SDS011;26146;51.114;5.654;2023-04-03T22:18:04;6.30;;;1.20;;
40433;SDS011;26146;51.114;5.654;2023-04-03T22:22:05;7.60;;;1.30;;
40433;SDS011;26146;51.114;5.654;2023-04-03T22:26:07;5.70;;;1.30;;
40433;SDS011;26146;51.114;5.654;2023-04-03T22:30:09;6.00;;;1.30;;
40433;SDS011;26146;51.114;5.654;2023-04-03T22:34:11;7.10;;;1.60;;
40433;SDS011;26146;51.114;5.654;2023-04-03T22:38:11;7.53;;;1.50;;
40433;SDS011;26146;51.114;5.654;2023-04-03T22:42:14;7.40;;;1.70;;
40433;SDS011;26146;51.114;5.654;2023-04-03T22:46:15;9.20;;;1.60;;
40433;SDS011;26146;51.114;5.654;2023-04-03T22:50:16;6.70;;;1.40;;
40433;SDS011;26146;51.114;5.654;2023-04-03T22:54:17;5.67;;;1.20;;
40433;SDS011;26146;51.114;5.654;2023-04-03T22:58:18;6.07;;;1.50;;
40433;SDS011;26146;51.114;5.654;2023-04-03T23:02:22;6.43;;;1.40;;
40433;SDS011;26146;51.114;5.654;2023-04-03T23:06:23;5.53;;;1.20;;
40433;SDS011;26146;51.114;5.654;2023-04-03T23:10:28;6.53;;;1.13;;
40433;SDS011;26146;51.114;5.654;2023-04-03T23:14:29;6.90;;;1.37;;
40433;SDS011;26146;51.114;5.654;2023-04-03T23:18:30;6.43;;;1.37;;
40433;SDS011;26146;51.114;5.654;2023-04-03T23:22:32;8.27;;;1.53;;
40433;SDS011;26146;51.114;5.654;2023-04-03T23:26:35;4.90;;;1.23;;
40433;SDS011;26146;51.114;5.654;2023-04-03T23:30:36;6.23;;;1.30;;
40433;SDS011;26146;51.114;5.654;2023-04-03T23:34:37;6.67;;;1.40;;
40433;SDS011;26146;51.114;5.654;2023-04-03T23:38:38;8.77;;;1.80;;
40433;SDS011;26146;51.114;5.654;2023-04-03T23:42:39;6.10;;;1.30;;
40433;SDS011;26146;51.114;5.654;2023-04-03T23:46:40;6.03;;;1.43;;
40433;SDS011;26146;51.114;5.654;2023-04-03T23:50:43;6.67;;;1.60;;
40433;SDS011;26146;51.114;5.654;2023-04-03T23:54:44;7.23;;;1.60;;
40433;SDS011;26146;51.114;5.654;2023-04-03T23:58:45;6.23;;;1.63;;
